Time;durP1;ratioP1;P1;durP2;ratioP2;P2;SDS_P1;SDS_P2;PMS_P1;PMS_P2;Temp;Humidity;BMP_temperature;BMP_pressure;BME280_temperature;BME280_humidity;BME280_pressure;Samples;Min_cycle;Max_cycle;Signal;HPM_P1;HPM_P2
2022/08/07 00:00:10;;;;;;;;;;;;;;;15.74;67.34;102683.69;5053322;28;20029;-36
2022/08/07 00:02:36;;;;;;;3.13;2.10;;;;;;;15.54;70.58;102684.63;5052540;28;19913;-36
2022/08/07 00:05:02;;;;;;;4.23;2.43;;;;;;;15.47;71.25;102686.56;5053252;28;20040;-36
2022/08/07 00:07:27;;;;;;;4.25;2.55;;;;;;;15.46;71.04;102676.69;5052330;28;20283;-36
2022/08/07 00:09:53;;;;;;;;;;;;;;;15.65;68.03;102681.19;5053147;28;20029;-36
2022/08/07 00:12:18;;;;;;;8.23;3.30;;;;;;;15.31;71.32;102676.97;5052594;28;19952;-36
2022/08/07 00:14:43;;;;;;;3.73;2.90;;;;;;;15.35;71.72;102675.50;5052757;28;20124;-36
2022/08/07 00:17:09;;;;;;;4.53;3.20;;;;;;;15.39;71.70;102679.47;5067778;28;20686;-36
2022/08/07 00:19:34;;;;;;;4.60;3.75;;;;;;;15.27;72.42;102667.56;5052574;28;20308;-36
2022/08/07 00:22:00;;;;;;;5.35;3.42;;;;;;;15.25;71.71;102669.69;5052255;28;20025;-36
2022/08/07 00:24:25;;;;;;;4.43;3.13;;;;;;;15.10;72.39;102656.34;5053117;28;20039;-36
2022/08/07 00:26:51;;;;;;;;;;;;;;;15.39;69.34;102665.00;5052735;28;20152;-36
2022/08/07 00:29:18;;;;;;;4.25;3.17;;;;;;;15.21;72.03;102668.44;5052155;28;19962;-36
2022/08/07 00:31:43;;;;;;;5.20;3.50;;;;;;;15.11;73.14;102663.47;5053060;28;20029;-36
2022/08/07 00:34:08;;;;;;;;;;;;;;;15.33;69.56;102663.16;5052610;28;20369;-36
2022/08/07 00:36:34;;;;;;;4.43;3.30;;;;;;;15.08;73.19;102657.59;5052506;28;20252;-36
2022/08/07 00:38:59;;;;;;;;;;;;;;;15.27;69.84;102653.94;5052884;28;20459;-36
2022/08/07 00:41:26;;;;;;;3.83;3.43;;;;;;;15.03;73.49;102650.09;5052646;28;20054;-36
2022/08/07 00:43:52;;;;;;;5.55;3.40;;;;;;;14.94;73.95;102646.78;5053687;28;20473;-36
2022/08/07 00:46:17;;;;;;;;;;;;;;;15.17;70.34;102651.69;5057070;28;20071;-36
2022/08/07 00:48:42;;;;;;;6.33;3.03;;;;;;;14.91;73.83;102638.19;5055897;28;19909;-36
2022/08/07 00:51:08;;;;;;;;;;;;;;;15.14;70.47;102648.59;5056967;28;20044;-36
2022/08/07 00:53:33;;;;;;;5.65;3.75;;;;;;;14.90;73.95;102652.88;5056176;28;19915;-36
2022/08/07 00:55:58;;;;;;;;;;;;;;;15.06;70.76;102649.66;5056787;28;20414;-36
2022/08/07 00:58:24;;;;;;;5.50;3.30;;;;;;;14.84;74.15;102653.75;5056051;28;19908;-36
2022/08/07 01:00:50;;;;;;;4.40;3.27;;;;;;;14.84;74.68;102646.41;5055658;28;20626;-36
2022/08/07 01:03:15;;;;;;;;;;;;;;;14.99;71.53;102648.03;5056865;28;20071;-36
2022/08/07 01:05:43;;;;;;;5.35;3.55;;;;;;;14.78;75.01;102643.69;5056122;28;19932;-36
2022/08/07 01:08:08;;;;;;;5.80;3.38;;;;;;;14.66;75.54;102648.97;5056115;28;20029;-36
2022/08/07 01:10:33;;;;;;;;;;;;;;;14.89;72.09;102643.03;5057027;28;20063;-36
2022/08/07 01:12:59;;;;;;;4.77;3.33;;;;;;;14.59;75.38;102638.13;5055797;28;20058;-36
2022/08/07 01:15:24;;;;;;;3.95;3.50;;;;;;;14.53;76.10;102630.78;5054881;28;20317;-36
2022/08/07 01:17:50;;;;;;;5.13;3.35;;;;;;;14.58;76.13;102636.44;5055596;28;20044;-36
2022/08/07 01:20:20;;;;;;;;;;;;;;;14.79;72.71;102639.94;5056864;28;20364;-36
2022/08/07 01:22:46;;;;;;;3.97;3.30;;;;;;;14.57;75.97;102634.75;5056168;28;19916;-36
2022/08/07 01:25:13;;;;;;;;;;;;;;;14.77;72.61;102622.97;5056247;28;20424;-36
2022/08/07 01:27:38;;;;;;;5.38;3.78;;;;;;;14.53;75.94;102617.19;5056009;28;19943;-36
2022/08/07 01:30:04;;;;;;;4.82;3.25;;;;;;;14.55;76.86;102625.16;5054463;28;20091;-36
2022/08/07 01:32:30;;;;;;;4.90;3.70;;;;;;;14.35;76.56;102611.56;5055336;28;20033;-36
2022/08/07 01:34:55;;;;;;;;;;;;;;;14.65;73.51;102625.53;5055461;28;20530;-36
2022/08/07 01:37:21;;;;;;;6.15;3.80;;;;;;;14.38;76.79;102624.72;5055331;28;19915;-36
2022/08/07 01:39:47;;;;;;;4.18;3.38;;;;;;;14.33;77.23;102624.53;5055538;28;20031;-36
2022/08/07 01:42:14;;;;;;;4.32;3.60;;;;;;;14.32;77.30;102622.88;5055114;28;20480;-36
2022/08/07 01:44:40;;;;;;;6.50;3.30;;;;;;;14.29;77.55;102615.13;5055887;28;20025;-36
2022/08/07 01:47:06;;;;;;;;;;;;;;;14.51;74.47;102624.75;5055968;28;20040;-36
2022/08/07 01:49:32;;;;;;;4.07;3.40;;;;;;;14.32;77.29;102617.44;5054805;28;20387;-36
2022/08/07 01:51:58;;;;;;;;;;;;;;;14.51;74.13;102611.13;5055285;28;20033;-36
2022/08/07 01:54:26;;;;;;;4.65;3.40;;;;;;;14.25;77.81;102619.31;5054670;28;19909;-36
2022/08/07 01:57:01;;;;;;;5.90;3.55;;;;;;;14.20;77.62;102619.97;5055436;28;20032;-36
2022/08/07 01:59:32;;;;;;;3.72;3.15;;;;;;;14.17;78.04;102623.09;5055156;28;20025;-36
2022/08/07 02:02:04;;;;;;;4.82;3.38;;;;;;;14.13;78.14;102610.97;5055281;28;20052;-36
2022/08/07 02:04:52;;;;;;;5.25;3.45;;;;;;;14.01;78.71;102599.06;5054754;28;20060;-36
2022/08/07 02:07:21;;;;;;;4.75;3.15;;;;;;;14.07;78.56;102615.38;5054989;28;20025;-36
2022/08/07 02:09:50;;;;;;;4.65;3.35;;;;;;;14.01;78.97;102615.41;5055199;28;20029;-36
2022/08/07 02:12:17;;;;;;;4.80;3.60;;;;;;;14.06;79.03;102615.59;5054435;28;20373;-36
2022/08/07 02:14:45;;;;;;;4.85;3.45;;;;;;;14.04;79.21;102618.50;5054832;28;20056;-36
2022/08/07 02:17:13;;;;;;;3.72;3.25;;;;;;;14.03;79.19;102610.56;5054751;28;20100;-36
2022/08/07 02:19:42;;;;;;;4.05;3.28;;;;;;;13.97;79.11;102620.41;5055248;28;20094;-36
2022/08/07 02:22:09;;;;;;;4.60;3.55;;;;;;;13.94;79.62;102612.66;5054065;28;20028;-36
2022/08/07 02:24:35;;;;;;;4.05;3.10;;;;;;;13.94;79.79;102609.09;5054503;28;20029;-36
2022/08/07 02:27:01;;;;;;;;;;;;;;;14.17;76.74;102607.63;5055124;28;20483;-36
2022/08/07 02:29:27;;;;;;;4.65;3.38;;;;;;;13.95;79.44;102602.63;5054526;28;19916;-36
2022/08/07 02:31:53;;;;;;;4.97;3.65;;;;;;;13.87;79.91;102603.69;5054777;28;20033;-36
2022/08/07 02:34:18;;;;;;;;;;;;;;;14.11;76.81;102603.03;5054600;28;20421;-36
2022/08/07 02:36:44;;;;;;;6.87;3.43;;;;;;;13.91;79.34;102599.50;5054723;28;19909;-36
2022/08/07 02:39:12;;;;;;;4.32;3.53;;;;;;;13.89;79.55;102607.03;5054208;28;20070;-35
2022/08/07 02:41:38;;;;;;;7.72;3.47;;;;;;;13.90;79.96;102600.53;5053993;28;20025;-34
2022/08/07 02:44:03;;;;;;;;;;;;;;;14.08;77.13;102600.72;5055294;28;20488;-34
2022/08/07 02:46:30;;;;;;;4.70;3.05;;;;;;;13.87;79.70;102601.81;5054483;28;19951;-34
2022/08/07 02:48:56;;;;;;;4.68;3.05;;;;;;;13.84;80.11;102599.50;5054164;28;20518;-34
2022/08/07 02:51:23;;;;;;;;;;;;;;;14.02;76.98;102598.84;5054543;28;20040;-34
2022/08/07 02:53:53;;;;;;;4.38;3.40;;;;;;;13.75;80.07;102583.59;5053780;28;19926;-34
2022/08/07 02:56:21;;;;;;;3.95;3.42;;;;;;;13.78;80.43;102594.06;5053953;28;20124;-34
2022/08/07 02:58:48;;;;;;;5.50;3.35;;;;;;;13.73;80.54;102585.69;5053956;28;20025;-34
2022/08/07 03:01:16;;;;;;;5.07;3.70;;;;;;;13.68;80.62;102590.94;5053326;28;20472;-34
2022/08/07 03:03:42;;;;;;;5.80;3.45;;;;;;;13.55;80.92;102578.16;5053707;28;20025;-34
2022/08/07 03:06:08;;;;;;;4.03;3.25;;;;;;;13.70;80.89;102591.53;5052266;28;20037;-34
2022/08/07 03:08:34;;;;;;;;;;;;;;;13.85;78.13;102600.31;5053637;28;20032;-34
2022/08/07 03:11:01;;;;;;;4.50;3.33;;;;;;;13.62;81.06;102596.16;5053784;28;19909;-35
2022/08/07 03:13:26;;;;;;;5.00;3.38;;;;;;;13.64;81.12;102594.06;5053739;28;20029;-35
2022/08/07 03:15:52;;;;;;;6.10;3.30;;;;;;;13.63;80.77;102602.44;5054037;28;20032;-35
2022/08/07 03:18:18;;;;;;;4.28;3.80;;;;;;;13.55;80.82;102598.03;5053351;28;20109;-35
2022/08/07 03:20:44;;;;;;;;;;;;;;;13.75;78.65;102594.47;5054202;28;20424;-35
2022/08/07 03:23:10;;;;;;;5.03;3.78;;;;;;;13.52;81.05;102592.19;5053288;28;19964;-35
2022/08/07 03:25:37;;;;;;;;;;;;;;;13.73;77.94;102599.28;5053740;28;20269;-35
2022/08/07 03:28:04;;;;;;;4.60;3.40;;;;;;;13.57;80.82;102589.69;5053039;28;19912;-35
2022/08/07 03:30:31;;;;;;;4.40;3.85;;;;;;;13.42;81.08;102591.72;5053453;28;20025;-35
2022/08/07 03:32:59;;;;;;;5.65;4.10;;;;;;;13.52;80.92;102594.91;5053591;28;20132;-35
2022/08/07 03:35:27;;;;;;;5.60;3.90;;;;;;;13.42;81.55;102592.59;5052855;28;20515;-35
2022/08/07 03:37:57;;;;;;;4.80;3.72;;;;;;;13.49;81.63;102589.88;5053064;28;20072;-35
2022/08/07 03:40:24;;;;;;;6.00;3.80;;;;;;;13.43;81.66;102588.00;5053011;28;20457;-35
2022/08/07 03:42:52;;;;;;;4.60;3.75;;;;;;;13.38;81.96;102583.19;5052838;28;20029;-35
2022/08/07 03:45:21;;;;;;;5.28;3.70;;;;;;;13.39;81.72;102582.13;5052729;28;20095;-35
2022/08/07 03:47:47;;;;;;;5.82;3.60;;;;;;;13.38;81.53;102586.72;5052604;28;20036;-35
2022/08/07 03:50:12;;;;;;;4.57;3.75;;;;;;;13.30;81.91;102586.91;5068842;28;20028;-35
2022/08/07 03:52:39;;;;;;;5.43;4.22;;;;;;;13.29;81.72;102568.13;5052820;28;20040;-35
2022/08/07 03:55:05;;;;;;;4.60;4.00;;;;;;;13.30;82.20;102586.09;5052517;28;20112;-35
2022/08/07 03:57:32;;;;;;;9.68;3.75;;;;;;;13.23;81.81;102582.53;5052665;28;20064;-35
2022/08/07 03:59:57;;;;;;;4.50;3.83;;;;;;;13.27;82.07;102595.47;5052980;28;20039;-35
2022/08/07 04:02:23;;;;;;;6.43;4.38;;;;;;;13.20;82.46;102599.22;5053052;28;20124;-35
2022/08/07 04:04:49;;;;;;;;;;;;;;;13.40;80.09;102590.06;5052475;28;20354;-35
2022/08/07 04:07:16;;;;;;;4.78;4.28;;;;;;;13.19;82.69;102598.38;5052571;28;19912;-35
2022/08/07 04:09:43;;;;;;;7.95;4.30;;;;;;;13.20;82.50;102607.34;5052863;28;20094;-35
2022/08/07 04:12:08;;;;;;;4.72;4.28;;;;;;;13.22;82.86;102608.00;5052280;28;20043;-34
2022/08/07 04:14:34;;;;;;;4.30;3.90;;;;;;;13.25;82.62;102610.31;5053162;28;20025;-35
2022/08/07 04:17:00;;;;;;;7.00;4.18;;;;;;;13.17;82.64;102616.75;5052963;28;20029;-35
2022/08/07 04:19:25;;;;;;;6.63;4.27;;;;;;;13.09;82.66;102609.63;5057362;28;20123;-34
2022/08/07 04:21:52;;;;;;;6.75;3.92;;;;;;;13.21;83.20;102622.59;5056970;28;20290;-35
2022/08/07 04:24:18;;;;;;;7.78;5.25;;;;;;;13.16;82.77;102620.50;5056078;28;20044;-35
2022/08/07 04:26:43;;;;;;;;;;;;;;;13.35;80.52;102624.34;5056754;28;20029;-35
2022/08/07 04:29:09;;;;;;;5.70;4.20;;;;;;;13.19;82.59;102622.81;5056473;28;19979;-34
2022/08/07 04:31:38;;;;;;;5.45;4.22;;;;;;;13.18;82.69;102613.00;5056781;28;20380;-35
2022/08/07 04:34:05;;;;;;;5.35;4.05;;;;;;;13.18;83.39;102617.59;5056132;28;20104;-34
2022/08/07 04:36:31;;;;;;;5.57;4.15;;;;;;;13.15;83.15;102616.94;5056520;28;20534;-35
2022/08/07 04:38:57;;;;;;;4.63;4.07;;;;;;;13.13;83.19;102616.34;5056483;28;20032;-35
2022/08/07 04:41:22;;;;;;;5.68;4.22;;;;;;;13.20;83.23;102621.78;5056451;28;20296;-35
2022/08/07 04:43:49;;;;;;;5.60;5.03;;;;;;;13.20;83.09;102618.22;5055939;28;20449;-34
2022/08/07 04:46:29;;;;;;;6.68;5.00;;;;;;;13.18;83.59;102623.03;5056716;28;20041;-35
2022/08/07 04:49:19;;;;;;;5.80;4.25;;;;;;;13.32;82.98;102624.75;5056951;28;20455;-35
2022/08/07 04:52:11;;;;;;;6.00;4.70;;;;;;;13.32;82.41;102628.31;5056528;28;20465;-35
2022/08/07 04:55:01;;;;;;;7.85;4.80;;;;;;;13.25;83.30;102619.31;5056436;28;20025;-34
2022/08/07 04:57:36;;;;;;;5.68;4.22;;;;;;;13.25;83.46;102629.34;5055643;28;20051;-35
2022/08/07 05:00:08;;;;;;;5.25;4.75;;;;;;;13.20;83.96;102634.53;5056151;28;20029;-35
2022/08/07 05:02:55;;;;;;;10.15;4.60;;;;;;;13.34;83.67;102639.81;5055586;28;20438;-35
2022/08/07 05:05:22;;;;;;;5.90;4.20;;;;;;;13.43;84.00;102637.75;5055965;28;20107;-35
2022/08/07 05:08:01;;;;;;;5.63;4.70;;;;;;;13.55;83.25;102630.63;5055607;28;20029;-35
2022/08/07 05:10:37;;;;;;;6.22;4.70;;;;;;;13.44;83.94;102623.09;5055739;28;20049;-34
2022/08/07 05:13:13;;;;;;;8.93;5.23;;;;;;;13.47;84.24;102628.13;5055444;28;20047;-34
2022/08/07 05:15:42;;;;;;;11.45;5.28;;;;;;;13.65;83.89;102631.06;5055933;28;20068;-35
2022/08/07 05:18:18;;;;;;;6.72;4.80;;;;;;;13.71;83.58;102629.38;5055584;28;20021;-34
2022/08/07 05:20:48;;;;;;;5.55;4.95;;;;;;;13.78;83.63;102619.38;5055754;28;20025;-34
2022/08/07 05:23:21;;;;;;;7.15;4.80;;;;;;;13.85;83.11;102631.06;5055248;28;20056;-34
2022/08/07 05:25:49;;;;;;;6.95;4.97;;;;;;;13.99;82.39;102633.78;5055270;28;20063;-34
2022/08/07 05:28:15;;;;;;;6.07;5.15;;;;;;;14.00;82.37;102643.63;5055442;28;20025;-35
2022/08/07 05:30:42;;;;;;;5.28;4.65;;;;;;;14.03;81.80;102635.06;5055626;28;20396;-35
2022/08/07 05:33:11;;;;;;;7.28;4.32;;;;;;;14.10;82.12;102642.16;5054999;28;20029;-35
2022/08/07 05:35:37;;;;;;;7.35;4.68;;;;;;;14.20;81.76;102635.44;5055058;28;20091;-35
2022/08/07 05:38:05;;;;;;;;;;;;;;;14.37;80.70;102632.06;5056265;28;20025;-34
2022/08/07 05:40:32;;;;;;;6.05;4.40;;;;;;;14.31;80.39;102640.25;5055105;28;19915;-35
2022/08/07 05:42:58;;;;;;;6.60;5.00;;;;;;;14.34;81.36;102637.09;5055001;28;20120;-35
2022/08/07 05:45:24;;;;;;;;;;;;;;;14.58;79.73;102643.75;5055840;28;20497;-35
2022/08/07 05:47:51;;;;;;;7.07;4.90;;;;;;;14.54;80.40;102654.25;5055224;28;19967;-34
2022/08/07 05:50:17;;;;;;;5.75;4.93;;;;;;;14.53;80.01;102654.47;5055163;28;20028;-35
2022/08/07 05:52:42;;;;;;;;;;;;;;;14.79;79.45;102645.38;5055313;28;20036;-35
2022/08/07 05:55:08;;;;;;;6.30;4.83;;;;;;;14.71;79.32;102640.19;5054909;28;20291;-35
2022/08/07 05:57:36;;;;;;;7.05;5.03;;;;;;;14.82;78.89;102639.50;5055174;28;20281;-35
2022/08/07 06:00:02;;;;;;;6.05;5.30;;;;;;;14.68;79.00;102639.53;5055322;28;20162;-35
2022/08/07 06:02:31;;;;;;;5.63;5.00;;;;;;;14.84;78.80;102645.59;5055083;28;20041;-34
2022/08/07 06:05:03;;;;;;;5.47;4.95;;;;;;;15.04;78.29;102646.31;5055411;28;20352;-34
2022/08/07 06:07:29;;;;;;;6.20;5.60;;;;;;;15.12;77.73;102643.31;5055145;28;20346;-34
2022/08/07 06:09:54;;;;;;;;;;;;;;;15.28;77.51;102643.91;5055631;28;20039;-34
2022/08/07 06:12:20;;;;;;;8.35;4.95;;;;;;;15.18;77.67;102647.09;5054516;28;19995;-34
2022/08/07 06:14:45;;;;;;;;;;;;;;;15.33;77.03;102644.06;5054886;28;20111;-35
2022/08/07 06:17:13;;;;;;;6.15;5.55;;;;;;;15.17;76.49;102648.97;5054238;28;19912;-35
2022/08/07 06:19:39;;;;;;;5.25;4.80;;;;;;;15.14;76.94;102645.84;5054418;28;20025;-35
2022/08/07 06:22:05;;;;;;;5.50;5.00;;;;;;;15.23;77.37;102651.91;5054306;28;20082;-35
2022/08/07 06:24:30;;;;;;;6.68;4.90;;;;;;;15.33;77.14;102654.97;5054350;28;20036;-35
2022/08/07 06:26:55;;;;;;;;;;;;;;;15.47;76.49;102662.03;5055107;28;20037;-35
2022/08/07 06:29:26;;;;;;;4.90;4.40;;;;;;;15.47;76.48;102653.84;5054477;28;19918;-35
2022/08/07 06:31:51;;;;;;;7.30;5.00;;;;;;;15.60;76.70;102651.00;5054761;28;20111;-35
2022/08/07 06:34:17;;;;;;;;;;;;;;;15.77;75.79;102645.88;5054515;28;20099;-35
2022/08/07 06:36:42;;;;;;;5.60;5.00;;;;;;;15.75;75.40;102645.25;5054366;28;19908;-35
2022/08/07 06:39:07;;;;;;;;;;;;;;;15.84;75.73;102643.94;5054523;28;20033;-35
2022/08/07 06:41:45;;;;;;;6.57;4.90;;;;;;;15.90;76.12;102643.03;5053111;28;20027;-35
2022/08/07 06:44:12;;;;;;;8.00;5.65;;;;;;;15.89;75.33;102643.25;5054018;28;20595;-35
2022/08/07 06:46:39;;;;;;;7.20;6.05;;;;;;;15.69;75.72;102627.91;5052834;28;20041;-35
2022/08/07 06:49:05;;;;;;;7.60;5.90;;;;;;;15.77;75.00;102634.16;5053514;28;20025;-35
2022/08/07 06:51:33;;;;;;;5.95;5.07;;;;;;;15.86;75.59;102625.47;5053938;28;20164;-35
2022/08/07 06:54:04;;;;;;;6.13;5.30;;;;;;;15.86;75.66;102632.78;5053630;28;20025;-35
2022/08/07 06:56:46;;;;;;;7.18;5.50;;;;;;;15.86;75.08;102622.75;5054255;28;20033;-34
2022/08/07 06:59:16;;;;;;;5.72;5.03;;;;;;;15.88;75.79;102625.22;5053393;28;20037;-34
2022/08/07 07:01:43;;;;;;;6.85;5.60;;;;;;;15.93;74.76;102626.22;5054091;28;20175;-35
2022/08/07 07:04:08;;;;;;;5.97;5.38;;;;;;;16.04;74.96;102624.66;5053823;28;20044;-35
2022/08/07 07:06:34;;;;;;;;;;;;;;;16.25;74.75;102641.66;5054056;28;20045;-35
2022/08/07 07:09:23;;;;;;;8.75;5.65;;;;;;;16.30;74.71;102628.19;5053585;28;20006;-35
2022/08/07 07:12:13;;;;;;;6.85;6.20;;;;;;;16.36;74.71;102625.41;5054428;28;20041;-35
2022/08/07 07:14:55;;;;;;;7.88;5.80;;;;;;;16.44;73.68;102632.44;5053507;28;20029;-35
2022/08/07 07:17:36;;;;;;;7.65;5.90;;;;;;;16.32;73.75;102637.00;5054137;28;20090;-35
2022/08/07 07:20:07;;;;;;;7.18;5.68;;;;;;;16.36;73.45;102638.22;5053620;28;20350;-35
2022/08/07 07:22:33;;;;;;;6.53;5.22;;;;;;;16.29;72.86;102621.88;5053979;28;20029;-35
2022/08/07 07:25:01;;;;;;;7.10;5.40;;;;;;;16.55;73.05;102644.53;5053232;28;20457;-35
2022/08/07 07:27:31;;;;;;;8.20;5.40;;;;;;;16.60;71.70;102628.28;5053146;28;20029;-35
2022/08/07 07:30:01;;;;;;;6.47;4.90;;;;;;;16.66;72.36;102630.09;5052910;28;20491;-35
2022/08/07 07:32:32;;;;;;;6.18;5.00;;;;;;;16.73;71.61;102623.50;5053080;28;20029;-35
2022/08/07 07:35:01;;;;;;;7.07;5.22;;;;;;;16.77;70.95;102615.69;5052911;28;20404;-35
2022/08/07 07:37:29;;;;;;;5.45;4.93;;;;;;;16.84;71.57;102607.44;5052721;28;20060;-35
2022/08/07 07:39:59;;;;;;;7.05;4.90;;;;;;;16.97;71.15;102615.44;5053773;28;20033;-35
2022/08/07 07:42:26;;;;;;;6.80;4.60;;;;;;;17.04;70.67;102621.66;5052748;28;20342;-35
2022/08/07 07:44:53;;;;;;;6.25;5.10;;;;;;;17.09;70.38;102616.34;5053457;28;20052;-35
2022/08/07 07:47:20;;;;;;;5.30;4.05;;;;;;;17.13;70.33;102601.16;5053023;28;20017;-35
2022/08/07 07:49:47;;;;;;;5.75;5.03;;;;;;;17.24;69.34;102615.91;5053188;28;20033;-35
2022/08/07 07:52:14;;;;;;;6.22;5.10;;;;;;;17.31;69.28;102615.81;5052513;28;20033;-35
2022/08/07 07:54:41;;;;;;;5.70;4.72;;;;;;;17.32;68.97;102615.56;5052856;28;20039;-35
2022/08/07 07:57:09;;;;;;;6.47;4.28;;;;;;;17.46;68.85;102610.72;5052712;28;20025;-35
2022/08/07 07:59:36;;;;;;;6.90;4.88;;;;;;;17.44;68.08;102615.63;5053215;28;20032;-35
2022/08/07 08:02:04;;;;;;;6.47;4.90;;;;;;;17.57;69.02;102618.16;5052733;28;20053;-35
2022/08/07 08:04:32;;;;;;;5.43;4.93;;;;;;;17.47;68.06;102621.47;5053465;28;20137;-35
2022/08/07 08:06:59;;;;;;;4.97;4.47;;;;;;;17.63;68.97;102617.19;5052869;28;20040;-35
2022/08/07 08:09:27;;;;;;;5.30;4.80;;;;;;;17.77;68.09;102612.38;5053384;28;20029;-35
2022/08/07 08:11:53;;;;;;;6.18;4.97;;;;;;;17.91;67.58;102610.22;5052629;28;20116;-35
2022/08/07 08:14:19;;;;;;;7.13;4.88;;;;;;;18.12;67.64;102604.19;5053386;28;20029;-35
2022/08/07 08:16:45;;;;;;;5.65;4.43;;;;;;;18.16;65.45;102605.38;5052991;28;20117;-35
2022/08/07 08:19:15;;;;;;;;;;;;;;;18.22;65.40;102607.13;5053100;28;20174;-35
2022/08/07 08:27:21;;;;;;;7.25;4.80;;;;;;;18.40;64.78;102605.34;5053044;28;20044;-35
2022/08/07 08:30:01;;;;;;;6.22;4.40;;;;;;;18.53;64.56;102599.59;5052786;28;20036;-35
2022/08/07 08:32:30;;;;;;;6.25;4.55;;;;;;;18.66;62.79;102601.22;5052798;28;20075;-35
2022/08/07 08:34:57;;;;;;;8.32;4.80;;;;;;;18.75;62.80;102603.38;5053178;28;20033;-35
2022/08/07 08:37:25;;;;;;;6.68;4.78;;;;;;;18.77;61.84;102611.34;5052150;28;20037;-35
2022/08/07 08:39:53;;;;;;;5.40;4.47;;;;;;;18.86;61.52;102601.66;5052768;28;20373;-35
2022/08/07 08:42:43;;;;;;;4.88;4.15;;;;;;;19.10;61.81;102610.63;5052292;28;20021;-35
2022/08/07 08:45:13;;;;;;;7.10;4.28;;;;;;;19.23;59.99;102612.25;5052036;28;20095;-35
2022/08/07 08:47:48;;;;;;;4.75;3.97;;;;;;;19.30;59.00;102602.78;5052692;28;20033;-35
2022/08/07 08:50:21;;;;;;;6.13;3.97;;;;;;;19.43;57.95;102609.03;5052728;28;20083;-35
2022/08/07 08:53:12;;;;;;;7.65;3.75;;;;;;;19.53;58.75;102604.56;5052327;28;20484;-35
2022/08/07 08:56:01;;;;;;;5.38;3.53;;;;;;;19.66;58.78;102597.91;5052831;28;20040;-35
2022/08/07 08:58:47;;;;;;;6.25;3.90;;;;;;;19.77;57.74;102599.75;5052335;28;20053;-35
2022/08/07 09:01:25;;;;;;;4.03;3.58;;;;;;;19.89;56.91;102596.09;5052260;28;20051;-35
2022/08/07 09:04:15;;;;;;;6.35;3.35;;;;;;;19.88;55.89;102597.19;5045888;28;20083;-35
2022/08/07 09:06:54;;;;;;;6.50;3.47;;;;;;;19.77;54.58;102582.47;5042989;28;20079;-35
2022/08/07 09:09:43;;;;;;;9.23;3.28;;;;;;;20.02;55.81;102590.25;5041564;28;20025;-35
2022/08/07 09:12:29;;;;;;;5.03;3.45;;;;;;;20.19;54.92;102596.53;5036017;28;20045;-35
2022/08/07 09:15:33;;;;;;;4.47;3.05;;;;;;;20.26;54.25;102597.19;5036557;28;20036;-35
2022/08/07 09:18:19;;;;;;;3.97;2.80;;;;;;;20.24;54.84;102591.09;5013887;28;20033;-35
2022/08/07 09:20:58;;;;;;;;;;;;;;;20.49;53.89;102584.31;5013436;28;20041;-35
2022/08/07 09:23:29;;;;;;;3.70;2.80;;;;;;;20.44;52.98;102582.28;5012625;28;19943;-35
2022/08/07 09:26:09;;;;;;;5.43;3.63;;;;;;;20.28;52.55;102570.28;5013538;28;20521;-35
2022/08/07 09:28:39;;;;;;;5.03;3.05;;;;;;;20.45;51.89;102583.16;5013515;28;20034;-35
2022/08/07 09:31:17;;;;;;;4.78;3.33;;;;;;;20.48;51.63;102583.47;5013370;28;20046;-35
2022/08/07 09:33:49;;;;;;;3.50;3.05;;;;;;;20.61;51.43;102576.78;5013974;28;20524;-35
2022/08/07 09:36:23;;;;;;;7.22;3.13;;;;;;;20.69;50.87;102573.59;5013768;28;20057;-35
2022/08/07 09:39:22;;;;;;;2.97;2.45;;;;;;;20.89;50.83;102583.97;5013554;28;20528;-35
2022/08/07 09:42:05;;;;;;;3.35;2.63;;;;;;;21.08;49.98;102577.03;5013096;28;20053;-35
2022/08/07 09:44:48;;;;;;;2.10;1.80;;;;;;;21.13;47.42;102561.66;5013442;28;20477;-35
2022/08/07 09:47:25;;;;;;;2.83;1.80;;;;;;;21.44;48.47;102562.81;5013361;28;20650;-35
2022/08/07 09:50:02;;;;;;;3.55;2.15;;;;;;;21.44;48.23;102573.81;5013270;28;20037;-35
2022/08/07 09:52:36;;;;;;;3.20;2.25;;;;;;;21.61;48.31;102568.97;5012917;28;20539;-35
2022/08/07 09:55:28;;;;;;;4.65;2.60;;;;;;;21.26;46.51;102570.31;5031279;28;20038;-35
2022/08/07 09:58:18;;;;;;;3.05;2.47;;;;;;;21.45;49.17;102546.03;5035275;28;20108;-35
2022/08/07 10:00:56;;;;;;;4.57;2.30;;;;;;;21.82;47.65;102554.28;5035057;28;20510;-35
2022/08/07 10:03:47;;;;;;;3.13;2.38;;;;;;;21.79;45.65;102559.47;5034601;28;20029;-35
2022/08/07 10:06:40;;;;;;;5.03;1.95;;;;;;;22.05;47.63;102552.19;5032206;28;20442;-35
2022/08/07 10:09:28;;;;;;;4.22;2.20;;;;;;;22.18;46.26;102539.91;5033631;28;20250;-36
2022/08/07 10:12:13;;;;;;;2.92;2.30;;;;;;;22.39;46.46;102535.31;5035216;28;20090;-35
2022/08/07 10:14:53;;;;;;;4.10;1.42;;;;;;;22.45;45.69;102528.72;5034754;28;20068;-34
2022/08/07 10:17:28;;;;;;;2.75;1.70;;;;;;;22.43;45.12;102529.00;5035132;28;20446;-36
2022/08/07 10:20:20;;;;;;;5.40;1.83;;;;;;;22.61;45.01;102527.69;5034840;28;20087;-35
2022/08/07 10:23:10;;;;;;;2.10;1.85;;;;;;;22.77;43.24;102525.78;5034329;28;20032;-36
2022/08/07 10:25:53;;;;;;;2.40;1.90;;;;;;;22.96;44.93;102521.44;5033920;28;20075;-35
2022/08/07 10:28:34;;;;;;;4.47;2.25;;;;;;;22.65;44.05;102534.31;5034206;28;20025;-35
2022/08/07 10:31:50;;;;;;;3.13;2.28;;;;;;;22.92;45.03;102520.31;5034393;28;20065;-35
2022/08/07 10:34:46;;;;;;;3.70;1.98;;;;;;;23.01;43.68;102526.94;5012290;28;20533;-35
2022/08/07 10:37:49;;;;;;;3.50;2.00;;;;;;;22.74;43.94;102523.56;5011938;28;20132;-35
2022/08/07 10:40:26;;;;;;;4.43;2.10;;;;;;;23.02;44.04;102517.56;5012204;28;20037;-35
2022/08/07 10:43:08;;;;;;;4.03;1.80;;;;;;;23.10;42.49;102522.53;5012577;28;20508;-35
2022/08/07 10:45:38;;;;;;;3.50;2.20;;;;;;;23.05;41.98;102510.69;4994056;28;20056;-35
2022/08/07 10:48:25;;;;;;;4.43;1.90;;;;;;;23.19;44.03;102508.22;5011233;28;20564;-35
2022/08/07 10:50:55;;;;;;;;;;;;;;;23.52;44.37;102510.41;5011486;28;20092;-35
2022/08/07 10:53:32;;;;;;;4.13;1.80;;;;;;;23.41;42.48;102502.38;5012806;28;19914;-35
2022/08/07 10:56:35;;;;;;;3.30;2.03;;;;;;;23.50;42.69;102507.06;5011541;28;20100;-35
2022/08/07 10:59:42;;;;;;;4.05;2.15;;;;;;;23.68;42.29;102502.13;4951334;29;20042;-35
2022/08/07 11:02:38;;;;;;;3.13;1.80;;;;;;;23.79;40.56;102499.03;4950166;29;20070;-35
2022/08/07 11:05:33;;;;;;;2.30;1.63;;;;;;;24.01;40.98;102500.63;4952069;29;20031;-35
2022/08/07 11:08:32;;;;;;;2.10;1.52;;;;;;;24.03;40.65;102495.66;4914169;29;20040;-35
2022/08/07 11:11:06;;;;;;;2.05;1.65;;;;;;;23.96;39.08;102484.06;4933214;29;20498;-36
2022/08/07 11:13:44;;;;;;;2.78;1.70;;;;;;;24.07;39.16;102485.69;4932085;29;20539;-35
2022/08/07 11:16:25;;;;;;;3.22;1.70;;;;;;;23.84;39.46;102484.38;4934125;29;20083;-35
2022/08/07 11:18:58;;;;;;;2.03;1.55;;;;;;;23.97;38.45;102478.28;4934125;29;20502;-35
2022/08/07 11:21:27;;;;;;;2.28;1.63;;;;;;;24.13;37.29;102474.31;4932944;29;20039;-36
2022/08/07 11:24:02;;;;;;;2.63;1.70;;;;;;;24.12;36.82;102467.16;4933994;29;20059;-35
2022/08/07 11:26:48;;;;;;;2.80;1.23;;;;;;;24.05;37.43;102468.56;4943102;29;20044;-36
2022/08/07 11:29:21;;;;;;;2.35;1.70;;;;;;;24.17;38.42;102466.31;4930667;29;20051;-36
2022/08/07 11:32:07;;;;;;;6.03;5.38;;;;;;;24.57;37.82;102462.50;4927248;29;20496;-35
2022/08/07 11:34:35;;;;;;;4.30;2.10;;;;;;;24.47;36.91;102456.22;4940998;28;20102;-35
2022/08/07 11:37:10;;;;;;;2.97;1.70;;;;;;;24.18;39.13;102458.84;4972388;28;20396;-35
2022/08/07 11:39:43;;;;;;;3.42;1.90;;;;;;;24.12;38.81;102463.56;4973373;28;20082;-35
2022/08/07 11:42:24;;;;;;;4.40;1.90;;;;;;;24.13;38.11;102454.16;4981704;28;20465;-35
2022/08/07 11:45:15;;;;;;;4.43;1.77;;;;;;;24.43;39.48;102449.59;5009345;28;20076;-35
2022/08/07 11:47:53;;;;;;;3.70;1.60;;;;;;;24.61;38.65;102452.53;5033377;28;20121;-35
2022/08/07 11:50:37;;;;;;;2.63;1.88;;;;;;;24.57;37.90;102447.84;5032506;28;20029;-36
2022/08/07 11:53:23;;;;;;;1.70;1.42;;;;;;;24.68;37.60;102446.66;5033219;28;20033;-36
2022/08/07 11:56:16;;;;;;;4.13;1.70;;;;;;;24.56;36.53;102435.16;5032616;28;20034;-35
2022/08/07 11:59:05;;;;;;;3.22;1.50;;;;;;;24.59;37.59;102445.63;5033351;28;20056;-35
2022/08/07 12:01:43;;;;;;;2.55;1.30;;;;;;;24.97;36.53;102443.94;5032148;28;20480;-35